Time;durP1;ratioP1;P1;durP2;ratioP2;P2;SDS_P1;SDS_P2;PMS_P1;PMS_P2;Temp;Humidity;BMP_temperature;BMP_pressure;BME280_temperature;BME280_humidity;BME280_pressure;Samples;Min_cycle;Max_cycle;Signal;HPM_P1;HPM_P2
2021/01/10 00:00:33;;;;;;;22.10;17.30;;;;;;;4.05;79.03;100828.50;2959397;80;21114;-62
2021/01/10 00:04:39;;;;;;;27.15;18.70;;;;;;;4.03;79.01;100829.03;3006243;79;21137;-62
2021/01/10 00:08:42;;;;;;;34.92;19.57;;;;;;;4.09;79.09;100826.11;3006098;79;21146;-64
2021/01/10 00:12:46;;;;;;;25.23;16.55;;;;;;;4.12;79.00;100815.91;2989568;78;21161;-63
2021/01/10 00:16:49;;;;;;;28.20;18.87;;;;;;;4.10;78.89;100819.91;2959317;80;21145;-61
2021/01/10 00:20:52;;;;;;;28.95;16.65;;;;;;;4.08;79.06;100825.72;3006143;79;21180;-61
2021/01/10 00:24:55;;;;;;;27.80;19.02;;;;;;;4.05;79.32;100826.34;3006136;79;21118;-63
2021/01/10 00:28:58;;;;;;;36.85;20.85;;;;;;;4.05;79.54;100824.55;3014047;78;21153;-61
2021/01/10 00:33:02;;;;;;;28.42;17.27;;;;;;;4.09;79.65;100830.06;3015578;78;21133;-62
2021/01/10 00:37:17;;;;;;;25.50;18.02;;;;;;;4.09;79.69;100830.06;3015166;79;21701;-62
2021/01/10 00:41:20;;;;;;;25.25;16.10;;;;;;;4.11;79.71;100832.63;3015496;77;21125;-62
2021/01/10 00:45:23;;;;;;;20.68;15.63;;;;;;;4.17;79.81;100835.45;3015005;79;21102;-63
2021/01/10 00:49:30;;;;;;;18.05;12.05;;;;;;;4.21;79.62;100830.43;3015484;78;21146;-62
2021/01/10 00:53:35;;;;;;;28.77;16.15;;;;;;;4.19;79.59;100827.02;3016903;77;21149;-61
2021/01/10 00:57:38;;;;;;;24.75;15.98;;;;;;;4.17;79.51;100831.50;3014612;79;21097;-62
2021/01/10 01:01:42;;;;;;;30.90;19.07;;;;;;;4.17;79.85;100843.35;3009169;79;21141;-62
2021/01/10 01:05:48;;;;;;;26.85;16.30;;;;;;;4.21;79.89;100842.28;3006359;79;21141;-63
2021/01/10 01:09:52;;;;;;;30.82;16.23;;;;;;;4.23;79.80;100841.74;3007232;79;21165;-61
2021/01/10 01:13:57;;;;;;;20.82;14.50;;;;;;;4.25;79.92;100837.25;3010909;79;21591;-63
2021/01/10 01:18:00;;;;;;;23.10;14.93;;;;;;;4.27;79.70;100842.85;3016132;77;21185;-62
2021/01/10 01:22:04;;;;;;;25.65;14.98;;;;;;;4.24;79.76;100839.50;2948497;80;21125;-62
2021/01/10 01:26:07;;;;;;;19.90;14.40;;;;;;;4.26;79.76;100841.59;2968995;80;21161;-63
2021/01/10 01:30:11;;;;;;;22.65;17.80;;;;;;;4.25;79.84;100838.57;3023729;78;21132;-63
2021/01/10 01:34:14;;;;;;;24.15;14.70;;;;;;;4.21;79.90;100842.28;3034144;78;21118;-62
2021/01/10 01:38:17;;;;;;;19.73;14.13;;;;;;;4.24;80.16;100838.18;3033831;78;21148;-64
2021/01/10 01:42:21;;;;;;;21.07;12.18;;;;;;;4.26;80.09;100844.23;3026340;78;21136;-62
2021/01/10 01:46:37;;;;;;;22.13;14.70;;;;;;;4.31;80.24;100836.13;2960542;79;21128;-62
2021/01/10 01:50:41;;;;;;;19.95;14.33;;;;;;;4.29;79.89;100841.00;2964565;78;21602;-62
2021/01/10 01:54:44;;;;;;;21.30;13.30;;;;;;;4.28;80.09;100843.69;3011430;78;21089;-64
2021/01/10 01:59:07;;;;;;;27.17;13.53;;;;;;;4.33;80.14;100840.41;2955227;80;21144;-62
2021/01/10 02:03:16;;;;;;;19.15;14.10;;;;;;;4.32;80.14;100839.14;3011834;79;21102;-63
2021/01/10 02:07:58;;;;;;;27.17;15.75;;;;;;;4.33;80.05;100843.03;2961159;80;21566;-62
2021/01/10 02:12:05;;;;;;;19.82;14.68;;;;;;;4.32;80.31;100848.36;3011984;78;21535;-64
2021/01/10 02:16:10;;;;;;;20.40;12.90;;;;;;;4.30;80.30;100847.10;2956567;80;21144;-63
2021/01/10 02:20:22;;;;;;;20.13;13.40;;;;;;;4.31;80.42;100848.81;2987665;78;21109;-62
2021/01/10 02:24:25;;;;;;;20.60;13.62;;;;;;;4.31;80.64;100847.49;2983329;79;21090;-64
2021/01/10 02:28:30;;;;;;;16.77;12.25;;;;;;;4.33;80.58;100849.63;2986328;79;21134;-63
2021/01/10 02:32:35;;;;;;;17.65;11.40;;;;;;;4.36;80.85;100852.11;3040624;77;21157;-63
2021/01/10 02:37:18;;;;;;;17.03;11.87;;;;;;;4.39;80.87;100852.41;2963405;79;21156;-63
2021/01/10 02:41:52;;;;;;;19.70;11.97;;;;;;;4.43;80.87;100852.20;3052351;77;21934;-62
2021/01/10 02:45:59;;;;;;;15.80;10.93;;;;;;;4.47;80.73;100848.09;2950134;80;21178;-63
2021/01/10 02:50:06;;;;;;;16.15;11.88;;;;;;;4.42;80.76;100847.86;2995952;77;21130;-63
2021/01/10 02:54:12;;;;;;;20.72;12.98;;;;;;;4.48;80.81;100849.80;3011837;79;21591;-62
2021/01/10 02:58:25;;;;;;;25.27;13.83;;;;;;;4.46;80.74;100847.26;3012641;79;21117;-63
2021/01/10 03:02:28;;;;;;;20.12;12.70;;;;;;;4.47;80.67;100850.73;2987901;79;21151;-63
2021/01/10 03:06:33;;;;;;;19.45;12.93;;;;;;;4.42;80.75;100850.48;3012630;79;21160;-63
2021/01/10 03:10:38;;;;;;;21.35;13.90;;;;;;;4.40;80.87;100848.39;3012411;79;21153;-62
2021/01/10 03:14:45;;;;;;;18.65;12.70;;;;;;;4.39;81.09;100850.64;3011714;79;21587;-62
2021/01/10 03:18:50;;;;;;;17.27;12.73;;;;;;;4.39;81.07;100857.23;2992346;78;21165;-62
2021/01/10 03:22:54;;;;;;;22.02;11.95;;;;;;;4.40;81.00;100849.71;2963168;80;21141;-63
2021/01/10 03:26:57;;;;;;;17.23;12.28;;;;;;;4.41;80.99;100851.42;2963090;79;21073;-64
2021/01/10 03:31:00;;;;;;;25.27;12.50;;;;;;;4.41;81.25;100850.10;2963310;79;21671;-63
2021/01/10 03:35:07;;;;;;;19.73;12.75;;;;;;;4.48;80.95;100844.53;2962976;79;21149;-63
2021/01/10 03:39:09;;;;;;;;;;;;;;;4.52;80.99;100844.33;2965760;79;21125;-63
2021/01/10 03:43:12;;;;;;;17.37;11.88;;;;;;;4.45;80.47;100846.87;2962571;79;20462;-64
2021/01/10 03:47:16;;;;;;;18.20;12.18;;;;;;;4.35;80.77;100842.50;3016408;78;21137;-63
2021/01/10 03:51:27;;;;;;;14.65;9.30;;;;;;;4.31;81.12;100846.17;3016697;78;21114;-62
2021/01/10 03:55:30;;;;;;;12.73;10.78;;;;;;;4.24;81.19;100843.45;2960532;79;21130;-63
2021/01/10 03:59:33;;;;;;;21.85;11.38;;;;;;;4.19;81.31;100838.39;2962909;79;21145;-62
2021/01/10 04:03:38;;;;;;;16.32;12.30;;;;;;;4.11;81.70;100836.58;3012324;77;21101;-63
2021/01/10 04:07:41;;;;;;;18.45;11.90;;;;;;;4.05;82.06;100839.51;2964639;80;21160;-63
2021/01/10 04:11:44;;;;;;;22.37;11.15;;;;;;;4.02;82.41;100839.63;2961041;80;21169;-63
2021/01/10 04:15:47;;;;;;;18.75;13.35;;;;;;;3.97;82.71;100835.91;2956533;80;21145;-62
2021/01/10 04:19:55;;;;;;;19.17;11.70;;;;;;;3.98;82.93;100845.03;2956178;80;21132;-63
2021/01/10 04:23:58;;;;;;;23.98;12.58;;;;;;;3.94;82.80;100838.20;2956113;80;21125;-62
2021/01/10 04:28:03;;;;;;;21.62;12.90;;;;;;;3.94;82.92;100843.95;2956051;80;21146;-62
2021/01/10 04:32:06;;;;;;;22.58;13.65;;;;;;;3.93;83.27;100848.78;2955910;80;21165;-61
2021/01/10 04:36:09;;;;;;;12.98;9.88;;;;;;;3.93;83.53;100851.42;2955972;80;21580;-63
2021/01/10 04:40:13;;;;;;;15.25;12.28;;;;;;;4.00;83.25;100860.29;2956104;80;21632;-63
2021/01/10 04:44:16;;;;;;;12.30;10.13;;;;;;;4.05;83.30;100860.56;2956103;80;21137;-63
2021/01/10 04:48:22;;;;;;;13.48;10.55;;;;;;;3.99;82.98;100864.33;2956039;80;21153;-63
2021/01/10 04:52:26;;;;;;;17.07;10.78;;;;;;;3.93;83.51;100856.68;2955580;80;21165;-62
2021/01/10 04:56:31;;;;;;;10.25;9.00;;;;;;;3.91;83.35;100858.09;2955788;80;21105;-63
2021/01/10 05:00:35;;;;;;;13.68;9.03;;;;;;;3.88;83.57;100863.94;2955859;80;21117;-63
2021/01/10 05:04:38;;;;;;;12.85;8.50;;;;;;;3.95;83.85;100868.03;2956180;80;21168;-62
2021/01/10 05:08:41;;;;;;;10.82;8.65;;;;;;;3.95;83.56;100870.66;2955868;80;21563;-63
2021/01/10 05:12:44;;;;;;;12.90;7.58;;;;;;;3.94;83.67;100878.16;2940534;80;21146;-63
2021/01/10 05:16:47;;;;;;;16.55;10.40;;;;;;;3.94;83.85;100879.48;2962753;80;21100;-63
2021/01/10 05:20:55;;;;;;;14.95;10.72;;;;;;;3.94;83.56;100880.80;2929985;81;21611;-63
2021/01/10 05:25:18;;;;;;;13.83;9.58;;;;;;;3.90;83.48;100880.52;2929956;81;21150;-63
2021/01/10 05:29:21;;;;;;;13.38;10.70;;;;;;;3.91;83.61;100880.91;2930048;81;21572;-63
2021/01/10 05:33:25;;;;;;;12.63;8.65;;;;;;;3.87;83.78;100874.95;2929821;81;21517;-63
2021/01/10 05:37:29;;;;;;;12.73;8.68;;;;;;;3.89;84.07;100882.31;2930070;81;21106;-63
2021/01/10 05:41:32;;;;;;;12.75;8.50;;;;;;;3.88;83.93;100882.36;2929893;81;21601;-64
2021/01/10 05:45:37;;;;;;;10.20;7.47;;;;;;;3.90;84.07;100888.41;2929493;81;21612;-62
2021/01/10 05:49:54;;;;;;;9.13;6.67;;;;;;;3.94;84.14;100893.95;2929880;81;21106;-62
2021/01/10 05:53:57;;;;;;;;;;;;;;;4.04;84.00;100897.03;2932809;81;21189;-64
2021/01/10 05:58:15;;;;;;;11.80;9.13;;;;;;;4.12;83.92;100899.69;2930020;81;20247;-62
2021/01/10 06:02:34;;;;;;;10.00;8.80;;;;;;;4.14;83.86;100904.45;2917970;80;21176;-62
2021/01/10 06:06:42;;;;;;;18.02;8.60;;;;;;;4.21;83.34;100904.16;2954170;80;21152;-62
2021/01/10 06:10:46;;;;;;;12.13;7.55;;;;;;;4.25;83.60;100905.73;2953999;80;29676;-62
2021/01/10 06:15:12;;;;;;;12.95;9.93;;;;;;;4.29;82.81;100915.19;2948265;80;21568;-63
2021/01/10 06:19:18;;;;;;;27.87;18.65;;;;;;;4.24;82.95;100916.74;2922846;81;21154;-64
2021/01/10 06:23:26;;;;;;;15.43;10.93;;;;;;;4.22;82.58;100917.72;2979937;79;21171;-64
2021/01/10 06:27:31;;;;;;;14.85;8.88;;;;;;;4.12;82.72;100922.07;2979926;79;21133;-63
2021/01/10 06:31:38;;;;;;;14.38;9.40;;;;;;;4.03;82.98;100927.76;2979847;79;21144;-64
2021/01/10 06:35:42;;;;;;;14.10;8.93;;;;;;;3.90;83.42;100926.13;2997585;78;21579;-63
2021/01/10 06:39:47;;;;;;;12.75;11.00;;;;;;;3.88;83.73;100929.30;3007182;78;21144;-62
2021/01/10 06:44:05;;;;;;;11.20;7.72;;;;;;;3.82;83.78;100933.05;2980109;79;21137;-63
2021/01/10 06:48:09;;;;;;;10.43;8.68;;;;;;;3.83;84.11;100932.12;2979637;79;21796;-63
2021/01/10 06:52:13;;;;;;;10.60;7.78;;;;;;;3.83;84.18;100932.12;2979757;79;21109;-62
2021/01/10 06:56:17;;;;;;;13.93;8.83;;;;;;;3.78;84.18;100938.05;2979699;79;21626;-62
2021/01/10 07:00:21;;;;;;;11.00;7.87;;;;;;;3.75;84.11;100936.88;2981152;78;21555;-63
2021/01/10 07:04:34;;;;;;;12.50;7.53;;;;;;;3.72;84.28;100934.34;2999879;78;21607;-62
2021/01/10 07:08:43;;;;;;;14.83;10.00;;;;;;;3.75;84.51;100938.63;2990865;78;21548;-62
2021/01/10 07:12:46;;;;;;;14.83;9.25;;;;;;;3.77;84.61;100937.66;2984980;79;21920;-62
2021/01/10 07:16:49;;;;;;;14.93;10.30;;;;;;;3.80;84.45;100937.52;2979090;79;21706;-62
2021/01/10 07:20:52;;;;;;;26.73;15.30;;;;;;;3.84;84.31;100940.41;3008708;78;22011;-63
2021/01/10 07:25:19;;;;;;;17.52;9.35;;;;;;;3.77;84.18;100938.10;2973805;79;21136;-62
2021/01/10 07:33:54;;;;;;;16.62;10.82;;;;;;;3.74;84.46;100952.71;3002041;78;22918;-63
2021/01/10 07:38:02;;;;;;;16.77;11.40;;;;;;;3.66;84.84;100951.27;2927513;81;21527;-63
2021/01/10 07:42:15;;;;;;;14.68;10.20;;;;;;;3.66;85.13;100953.91;2932767;79;21613;-60
2021/01/10 07:46:44;;;;;;;14.70;11.93;;;;;;;3.75;85.34;100952.66;2970764;79;21595;-61
2021/01/10 07:50:47;;;;;;;16.57;10.55;;;;;;;3.83;85.19;100954.48;2970247;79;21125;-61
2021/01/10 07:54:55;;;;;;;17.90;11.30;;;;;;;3.95;85.09;100958.84;2983165;79;21149;-60
2021/01/10 07:59:18;;;;;;;24.67;13.30;;;;;;;4.09;85.04;100952.49;2958043;79;21153;-60
2021/01/10 08:03:27;;;;;;;16.40;12.13;;;;;;;4.25;84.65;100953.13;2971607;79;21586;-60
2021/01/10 08:07:33;;;;;;;13.18;10.15;;;;;;;4.32;84.28;100961.63;2959131;79;21172;-60
2021/01/10 08:11:38;;;;;;;19.45;12.28;;;;;;;4.37;83.40;100960.50;2948660;79;21160;-61
2021/01/10 08:15:47;;;;;;;14.68;10.43;;;;;;;4.37;83.46;100970.16;2982946;79;21728;-62
2021/01/10 08:19:52;;;;;;;20.12;14.43;;;;;;;4.40;83.62;100976.16;2957399;79;21153;-61
2021/01/10 08:23:55;;;;;;;20.27;11.80;;;;;;;4.53;84.26;100979.09;2975065;79;21164;-61
2021/01/10 08:27:58;;;;;;;21.35;13.45;;;;;;;4.62;83.36;100983.09;2941936;79;21121;-62
2021/01/10 08:32:01;;;;;;;20.77;14.35;;;;;;;4.56;83.04;100982.89;2965451;79;21161;-60
2021/01/10 08:36:23;;;;;;;19.50;11.40;;;;;;;4.63;83.30;100991.38;2968843;80;21583;-58
2021/01/10 08:40:26;;;;;;;13.25;9.50;;;;;;;4.65;82.83;100990.84;2932754;80;21623;-61
2021/01/10 08:44:30;;;;;;;17.20;11.68;;;;;;;4.51;82.50;100994.56;2867251;83;21583;-58
2021/01/10 08:48:34;;;;;;;13.50;11.70;;;;;;;4.38;82.30;100994.27;2943311;80;21157;-60
2021/01/10 08:52:57;;;;;;;18.50;9.90;;;;;;;4.35;82.85;100991.32;2943198;80;21154;-60
2021/01/10 08:57:01;;;;;;;15.85;11.00;;;;;;;4.34;82.96;100997.96;2867311;83;21101;-62
2021/01/10 09:01:04;;;;;;;20.45;14.33;;;;;;;4.32;82.68;100996.70;2943581;80;21600;-61
2021/01/10 09:05:09;;;;;;;17.65;10.05;;;;;;;4.25;82.92;100993.52;2942351;80;22204;-61
2021/01/10 09:09:32;;;;;;;17.87;11.18;;;;;;;4.20;82.87;100995.47;2935478;80;21129;-62
2021/01/10 09:13:37;;;;;;;19.17;12.65;;;;;;;4.16;82.91;101003.59;2914389;80;21599;-60
2021/01/10 09:17:50;;;;;;;14.35;10.50;;;;;;;4.23;83.54;101002.39;2838591;83;21623;-62
2021/01/10 09:21:54;;;;;;;20.15;11.93;;;;;;;4.28;82.94;101000.41;2934840;80;21157;-62
2021/01/10 09:25:57;;;;;;;21.20;14.38;;;;;;;4.38;83.31;101009.63;2934152;80;21564;-61
2021/01/10 09:30:07;;;;;;;15.88;11.38;;;;;;;4.50;83.43;101007.34;2940031;80;21133;-61
2021/01/10 09:34:10;;;;;;;15.20;10.43;;;;;;;4.51;82.69;101010.37;2947587;80;21161;-62
2021/01/10 09:38:17;;;;;;;17.17;13.53;;;;;;;4.60;82.62;101004.70;2950127;80;21140;-61
2021/01/10 09:42:20;;;;;;;20.60;14.68;;;;;;;4.66;82.48;101003.58;2953381;80;21170;-61
2021/01/10 09:46:35;;;;;;;20.10;14.28;;;;;;;4.67;81.70;101011.88;2924996;80;21172;-61
2021/01/10 09:50:39;;;;;;;17.05;10.10;;;;;;;4.74;82.08;101013.77;2925621;80;21582;-62
2021/01/10 09:54:42;;;;;;;16.07;10.48;;;;;;;4.80;81.49;101011.68;2925757;80;21179;-63
2021/01/10 09:58:47;;;;;;;12.73;7.92;;;;;;;4.86;81.33;101013.19;2925588;81;21147;-61
2021/01/10 10:02:50;;;;;;;13.45;8.70;;;;;;;4.85;80.23;101007.52;2949537;80;21642;-62
2021/01/10 10:06:53;;;;;;;14.55;9.03;;;;;;;4.80;80.29;101013.00;2960823;80;21145;-61
2021/01/10 10:10:55;;;;;;;17.30;11.40;;;;;;;4.74;80.13;101004.55;2908700;81;21126;-61
2021/01/10 10:15:07;;;;;;;15.55;10.50;;;;;;;4.70;80.98;101001.19;2959988;80;21671;-61
2021/01/10 10:19:10;;;;;;;11.50;9.30;;;;;;;4.75;80.79;100994.39;2910195;81;21168;-61
2021/01/10 10:23:15;;;;;;;15.10;9.85;;;;;;;4.68;80.39;101005.67;2911381;81;21121;-62
2021/01/10 10:27:18;;;;;;;12.87;9.57;;;;;;;4.67;80.73;100999.53;2920930;81;21575;-61
2021/01/10 10:31:24;;;;;;;15.83;10.98;;;;;;;4.68;80.33;100998.61;2877196;81;21180;-61
2021/01/10 10:35:29;;;;;;;14.60;9.13;;;;;;;4.61;79.69;101000.27;2877219;82;21157;-62
2021/01/10 10:39:34;;;;;;;9.70;6.45;;;;;;;4.60;80.08;101003.83;2877320;82;21580;-61
2021/01/10 10:43:37;;;;;;;16.40;8.73;;;;;;;4.42;79.52;100998.02;2876537;82;21862;-61
2021/01/10 10:47:43;;;;;;;13.40;8.80;;;;;;;4.41;80.04;100990.17;2897024;81;21159;-61
2021/01/10 10:51:47;;;;;;;15.23;9.15;;;;;;;4.45;80.47;100998.35;2875356;82;21626;-62
2021/01/10 10:55:51;;;;;;;13.85;9.73;;;;;;;4.54;80.69;100993.13;2901409;81;21539;-61
2021/01/10 10:59:54;;;;;;;15.00;10.78;;;;;;;4.55;80.54;100983.83;2888472;81;21749;-61
2021/01/10 11:03:57;;;;;;;18.50;12.00;;;;;;;4.62;80.38;100975.63;2909538;81;21160;-61
2021/01/10 11:08:00;;;;;;;16.27;10.95;;;;;;;4.65;80.04;100975.03;2880418;81;21551;-61
2021/01/10 11:12:06;;;;;;;13.48;10.18;;;;;;;4.75;80.34;100969.36;2969718;80;21683;-60
2021/01/10 11:16:10;;;;;;;16.65;12.82;;;;;;;4.79;79.88;100977.50;2972380;80;21125;-60
2021/01/10 11:20:16;;;;;;;16.77;11.80;;;;;;;4.72;79.79;100980.88;2972670;80;21133;-58
2021/01/10 11:24:21;;;;;;;18.35;11.38;;;;;;;4.77;80.08;100975.41;2960217;80;21121;-58
2021/01/10 11:28:24;;;;;;;18.60;11.43;;;;;;;4.74;80.30;100976.88;2958111;80;21169;-60
2021/01/10 11:32:27;;;;;;;15.23;10.30;;;;;;;4.71;80.14;100972.11;2936528;80;21149;-59
2021/01/10 11:36:32;;;;;;;15.28;8.43;;;;;;;4.64;80.04;100961.47;2920548;81;21142;-59
2021/01/10 11:40:34;;;;;;;18.90;9.60;;;;;;;4.52;80.21;100972.11;2920550;81;21166;-59
2021/01/10 11:44:37;;;;;;;16.32;9.05;;;;;;;4.50;80.74;100966.06;2920348;81;21169;-59
2021/01/10 11:48:42;;;;;;;21.27;11.68;;;;;;;4.51;80.85;100968.22;2920547;81;21539;-58
2021/01/10 11:52:45;;;;;;;20.48;11.08;;;;;;;4.48;80.74;100957.38;2920264;81;21721;-60
2021/01/10 11:56:48;;;;;;;26.77;16.30;;;;;;;4.48;81.25;100961.33;2920325;81;21158;-59
2021/01/10 12:00:53;;;;;;;25.82;14.33;;;;;;;4.46;80.73;100957.91;2962463;80;21145;-59
2021/01/10 12:04:56;;;;;;;13.28;7.85;;;;;;;4.42;80.70;100956.31;2922668;80;21193;-61
2021/01/10 12:08:59;;;;;;;14.35;10.10;;;;;;;4.43;80.73;100959.37;2965852;80;21133;-60
2021/01/10 12:13:05;;;;;;;9.00;6.80;;;;;;;4.36;80.64;100962.73;2951165;80;21129;-62
2021/01/10 12:17:08;;;;;;;7.25;6.05;;;;;;;4.34;81.09;100951.42;2912277;81;21702;-61
2021/01/10 12:21:14;;;;;;;13.78;8.70;;;;;;;4.37;80.77;100960.50;2922900;81;21153;-61
2021/01/10 12:25:17;;;;;;;12.80;8.13;;;;;;;4.32;80.73;100965.09;2870941;81;21157;-62
2021/01/10 12:29:20;;;;;;;9.55;6.92;;;;;;;4.34;80.83;100955.37;2840806;81;21633;-61
2021/01/10 12:33:23;;;;;;;70.20;31.87;;;;;;;4.35;80.57;100958.39;2903218;81;21196;-62
2021/01/10 12:37:27;;;;;;;60.43;28.55;;;;;;;4.37;80.22;100960.50;2916614;81;21169;-62
2021/01/10 12:41:30;;;;;;;52.15;22.70;;;;;;;4.37;80.42;100956.99;2925373;81;21584;-60
2021/01/10 12:45:34;;;;;;;93.92;41.40;;;;;;;4.33;80.28;100960.70;2920147;81;21188;-63
2021/01/10 12:49:38;;;;;;;16.17;9.35;;;;;;;4.35;80.87;100953.13;2912918;81;21215;-61
2021/01/10 12:53:41;;;;;;;107.70;47.33;;;;;;;4.29;80.30;100956.89;2872465;81;21147;-62
2021/01/10 12:57:44;;;;;;;43.15;20.08;;;;;;;4.37;80.99;100957.86;2875026;81;21118;-61
2021/01/10 13:01:46;;;;;;;50.45;25.82;;;;;;;4.35;81.06;100951.81;2925518;81;21133;-61
2021/01/10 13:05:50;;;;;;;69.25;31.85;;;;;;;4.38;81.00;100953.44;2909228;81;21187;-60
2021/01/10 13:09:53;;;;;;;52.03;29.18;;;;;;;4.45;81.29;100956.65;2875194;82;21688;-62
2021/01/10 13:13:56;;;;;;;66.42;40.40;;;;;;;4.47;81.00;100953.03;2875506;81;21151;-61
2021/01/10 13:17:59;;;;;;;37.58;21.00;;;;;;;4.45;80.98;100948.75;2875027;81;21163;-61
2021/01/10 13:22:03;;;;;;;94.95;51.37;;;;;;;4.46;81.03;100953.09;2904808;81;22220;-62
2021/01/10 13:26:06;;;;;;;31.12;14.65;;;;;;;4.45;80.81;100956.65;2904730;82;21620;-62
2021/01/10 13:30:11;;;;;;;52.48;29.25;;;;;;;4.47;81.10;100945.13;2908920;81;21616;-62
2021/01/10 13:34:14;;;;;;;36.93;21.77;;;;;;;4.51;81.17;100948.45;2914971;81;21153;-62
2021/01/10 13:38:17;;;;;;;46.95;24.32;;;;;;;4.49;81.09;100945.91;2920587;81;21606;-60
2021/01/10 13:42:20;;;;;;;34.55;21.62;;;;;;;4.43;81.15;100960.21;2877677;82;21165;-62
2021/01/10 13:46:24;;;;;;;28.20;21.07;;;;;;;4.42;81.30;100962.45;2879914;81;21627;-62
2021/01/10 13:50:29;;;;;;;26.83;15.07;;;;;;;4.40;81.20;100961.67;2907668;81;21117;-69
2021/01/10 13:54:34;;;;;;;24.52;16.57;;;;;;;4.33;81.56;100965.52;2877017;82;22177;-69
2021/01/10 13:58:36;;;;;;;21.82;15.30;;;;;;;4.33;81.96;100973.87;2876194;82;21572;-72
2021/01/10 14:02:40;;;;;;;33.10;21.68;;;;;;;4.39;82.09;100978.41;2876247;82;21590;-70
2021/01/10 14:06:44;;;;;;;26.37;18.43;;;;;;;4.47;81.89;100983.77;2916139;81;21180;-69
2021/01/10 14:10:47;;;;;;;26.62;20.45;;;;;;;4.46;81.47;100984.70;2867690;82;21640;-69
2021/01/10 14:14:52;;;;;;;20.15;14.45;;;;;;;4.49;81.57;100981.92;2924338;81;21095;-72
2021/01/10 14:18:57;;;;;;;21.10;16.30;;;;;;;4.44;81.12;100980.84;2925257;81;22272;-69
2021/01/10 14:23:00;;;;;;;19.75;13.68;;;;;;;4.43;81.19;100985.23;2925535;80;21525;-69
2021/01/10 14:27:04;;;;;;;20.08;14.85;;;;;;;4.39;81.05;100986.30;2925618;81;21601;-70
2021/01/10 14:31:08;;;;;;;23.80;13.80;;;;;;;4.41;81.32;100983.14;2926246;81;21604;-70
2021/01/10 14:35:13;;;;;;;27.50;15.50;;;;;;;4.45;81.13;100979.91;2936192;80;21144;-70
2021/01/10 14:39:17;;;;;;;18.27;12.15;;;;;;;4.43;81.13;100977.81;2948242;80;21125;-71
2021/01/10 14:43:20;;;;;;;21.27;15.15;;;;;;;4.46;81.42;100981.63;2925418;80;21607;-69
2021/01/10 14:47:23;;;;;;;27.37;15.40;;;;;;;4.47;80.98;100985.09;2882141;82;21603;-70
2021/01/10 14:51:26;;;;;;;47.80;29.65;;;;;;;4.46;81.01;100984.70;2906979;81;21105;-72
2021/01/10 14:55:29;;;;;;;29.75;18.82;;;;;;;4.50;81.14;100984.95;2920539;81;21141;-72
2021/01/10 14:59:32;;;;;;;28.65;18.12;;;;;;;4.55;81.20;100990.41;2877149;81;21157;-69
2021/01/10 15:03:36;;;;;;;21.52;17.05;;;;;;;4.59;80.85;100993.77;2877332;82;21592;-72
2021/01/10 15:07:39;;;;;;;23.40;15.15;;;;;;;4.49;80.58;100992.46;2877343;82;21145;-69
2021/01/10 15:11:42;;;;;;;22.85;15.38;;;;;;;4.44;80.71;100995.33;2877572;82;21552;-71
2021/01/10 15:15:47;;;;;;;19.90;14.45;;;;;;;4.43;80.93;100991.82;2877163;82;21639;-71
2021/01/10 15:19:50;;;;;;;22.00;17.80;;;;;;;4.38;80.80;100988.55;2875771;81;21583;-70
2021/01/10 15:23:54;;;;;;;39.18;28.12;;;;;;;4.44;80.95;100994.02;2867382;81;21132;-71
2021/01/10 15:27:57;;;;;;;70.75;41.63;;;;;;;4.35;80.60;100996.59;2866520;83;21171;-71
2021/01/10 15:32:01;;;;;;;46.20;26.33;;;;;;;4.33;80.56;101000.20;2847541;82;21583;-70
2021/01/10 15:36:07;;;;;;;18.37;11.75;;;;;;;4.29;80.27;100992.44;2869046;82;22206;-72
2021/01/10 15:40:12;;;;;;;26.67;17.30;;;;;;;4.25;80.08;100994.83;2868719;83;22237;-69
2021/01/10 15:44:15;;;;;;;18.90;14.23;;;;;;;4.23;80.02;100993.17;2868809;83;21169;-70
2021/01/10 15:48:17;;;;;;;15.68;11.80;;;;;;;4.26;80.28;100993.03;2868648;83;21563;-70
2021/01/10 15:52:21;;;;;;;27.50;18.20;;;;;;;4.31;79.99;100992.36;2869198;83;21168;-72
2021/01/10 15:56:24;;;;;;;25.72;17.87;;;;;;;4.33;79.76;100998.89;2868987;83;21571;-72
2021/01/10 16:00:27;;;;;;;27.07;19.23;;;;;;;4.30;79.68;101001.19;2868948;83;21173;-70
2021/01/10 16:04:30;;;;;;;28.98;17.60;;;;;;;4.33;79.81;100997.13;2869225;83;21713;-73
2021/01/10 16:08:40;;;;;;;19.70;15.78;;;;;;;4.36;79.86;100994.34;2868934;83;21161;-70
2021/01/10 16:12:45;;;;;;;15.75;10.70;;;;;;;4.35;80.09;100995.27;2868625;83;21153;-71
2021/01/10 16:16:48;;;;;;;18.77;13.32;;;;;;;4.29;80.16;100995.52;2868636;83;21884;-71
2021/01/10 16:20:51;;;;;;;23.50;15.00;;;;;;;4.23;80.55;100995.80;2868837;83;21547;-72
2021/01/10 16:24:55;;;;;;;23.18;15.15;;;;;;;4.21;80.93;100995.02;2868734;83;21141;-70
2021/01/10 16:28:58;;;;;;;19.20;15.70;;;;;;;4.21;80.53;100998.97;2868952;83;21634;-69
2021/01/10 16:33:04;;;;;;;20.10;14.68;;;;;;;4.16;80.65;100995.69;2865244;82;21640;-71
2021/01/10 16:37:06;;;;;;;18.00;10.80;;;;;;;4.12;80.83;100999.75;2833903;84;21583;-71
2021/01/10 16:41:10;;;;;;;16.93;11.75;;;;;;;4.09;81.12;100998.57;2871296;82;21598;-72
2021/01/10 16:45:13;;;;;;;24.50;15.60;;;;;;;4.13;81.95;100997.54;2871447;82;21145;-71
2021/01/10 16:49:16;;;;;;;26.90;15.18;;;;;;;4.25;81.86;100997.46;2871191;82;21180;-70
2021/01/10 16:53:19;;;;;;;23.35;14.33;;;;;;;4.37;81.64;100995.19;2871330;82;21160;-71
2021/01/10 16:57:22;;;;;;;17.92;13.03;;;;;;;4.47;81.70;100998.27;2871828;82;21165;-71
2021/01/10 17:01:25;;;;;;;19.85;12.35;;;;;;;4.50;80.67;101002.08;2871212;82;21125;-70
2021/01/10 17:05:28;;;;;;;17.42;12.25;;;;;;;4.36;80.68;101000.94;2871425;82;21156;-70
2021/01/10 17:09:31;;;;;;;22.87;14.40;;;;;;;4.24;81.02;100994.44;2871398;82;21113;-71
2021/01/10 17:13:36;;;;;;;17.87;11.30;;;;;;;4.19;81.40;100992.44;2871338;82;21133;-72
2021/01/10 17:17:42;;;;;;;13.98;11.45;;;;;;;4.16;81.56;100995.21;2871378;82;21153;-71
2021/01/10 17:21:47;;;;;;;17.12;11.60;;;;;;;4.11;81.53;100992.77;2871613;82;21160;-71
2021/01/10 17:25:51;;;;;;;14.98;12.05;;;;;;;4.09;81.54;100984.56;2871402;82;21176;-71
2021/01/10 17:29:56;;;;;;;17.95;12.93;;;;;;;4.06;81.72;100985.54;2871141;82;21498;-71
2021/01/10 17:33:59;;;;;;;17.12;12.80;;;;;;;4.08;81.74;100978.91;2883981;81;21148;-70
2021/01/10 17:38:04;;;;;;;20.57;13.45;;;;;;;4.07;81.92;100978.03;2920692;81;21148;-70
2021/01/10 17:42:07;;;;;;;23.57;16.97;;;;;;;4.13;82.08;100981.73;2920508;81;21186;-70
2021/01/10 17:46:20;;;;;;;31.27;22.30;;;;;;;4.17;82.42;100977.66;2920548;81;21574;-71
2021/01/10 17:50:23;;;;;;;36.40;20.12;;;;;;;4.31;82.53;100979.19;2920447;81;21623;-72
2021/01/10 17:54:26;;;;;;;41.68;21.10;;;;;;;4.36;82.04;100982.50;2920788;81;21689;-72
2021/01/10 17:58:29;;;;;;;31.07;21.77;;;;;;;4.41;81.68;100986.22;2920439;81;21587;-72
2021/01/10 18:02:32;;;;;;;35.03;25.45;;;;;;;4.38;81.64;100982.41;2920363;81;21603;-72
2021/01/10 18:06:35;;;;;;;34.70;22.85;;;;;;;4.38;81.63;100987.23;2920507;81;21587;-74
2021/01/10 18:10:40;;;;;;;37.00;23.85;;;;;;;4.42;81.57;100989.24;2920853;81;21120;-72
2021/01/10 18:14:43;;;;;;;34.53;24.37;;;;;;;4.41;81.25;100980.95;2920581;81;21145;-70
2021/01/10 18:18:46;;;;;;;36.13;23.85;;;;;;;4.42;81.31;100980.89;2917830;81;21140;-72
2021/01/10 18:22:49;;;;;;;33.45;22.55;;;;;;;4.45;81.11;100985.63;2920564;81;21132;-74
2021/01/10 18:26:53;;;;;;;36.35;23.35;;;;;;;4.40;80.98;100996.36;2920121;81;21164;-70
2021/01/10 18:30:57;;;;;;;31.33;22.62;;;;;;;4.36;80.95;100996.11;2920469;81;21177;-72
2021/01/10 18:35:01;;;;;;;34.63;24.65;;;;;;;4.31;80.98;100994.16;2907926;81;21608;-72
2021/01/10 18:39:05;;;;;;;38.15;23.00;;;;;;;4.28;81.32;100997.77;2892428;82;21094;-73
2021/01/10 18:43:10;;;;;;;35.70;24.00;;;;;;;4.32;81.29;100995.86;2901414;80;21176;-73
2021/01/10 18:47:15;;;;;;;29.72;19.95;;;;;;;4.35;81.13;100996.59;2866821;83;21595;-71
2021/01/10 18:51:34;;;;;;;35.95;21.87;;;;;;;4.34;81.01;100996.20;2943022;80;21134;-70
2021/01/10 18:55:38;;;;;;;32.98;22.20;;;;;;;4.36;81.03;100985.13;2842584;83;21639;-70